Terminal Aerodrome Forecast
Issued by NWS

Home | Current Version | Previous Version | Text Only | Print | Product List | Glossary On
Versions: 1 2 3 4 5 6 7 8 9 10 11 12 13 14 15 16 17 18 19 20 21
000
FTUS43 KAPX 010220 AAA
TAFMBL
TAF AMD
KMBL 010220Z 0102/0124 01007KT P6SM SCT007 OVC012
     FM010600 34005KT P6SM OVC007
     FM011400 33009KT P6SM OVC015
     FM011600 33010G15KT P6SM SCT030
      AMD LTD TO CLD VIS AND WIND=

USA.gov is the U.S. government's official web portal to all federal, state and local government web resources and services.